sensor_id;sensor_type;location;lat;lon;timestamp;P1;durP1;ratioP1;P2;durP2;ratioP2
78891;SDS011;68368;51.728;5.248;2024-01-10T00:00:29;5.30;;;2.80;;
78891;SDS011;68368;51.728;5.248;2024-01-10T00:02:31;4.20;;;2.00;;
78891;SDS011;68368;51.728;5.248;2024-01-10T00:04:34;5.50;;;2.90;;
78891;SDS011;68368;51.728;5.248;2024-01-10T00:06:37;5.50;;;2.20;;
78891;SDS011;68368;51.728;5.248;2024-01-10T00:08:40;5.20;;;2.50;;
78891;SDS011;68368;51.728;5.248;2024-01-10T00:10:43;5.40;;;2.80;;
78891;SDS011;68368;51.728;5.248;2024-01-10T00:12:46;4.70;;;2.50;;
78891;SDS011;68368;51.728;5.248;2024-01-10T00:14:48;5.90;;;2.80;;
78891;SDS011;68368;51.728;5.248;2024-01-10T00:16:51;6.30;;;3.00;;
78891;SDS011;68368;51.728;5.248;2024-01-10T00:18:54;5.70;;;2.70;;
78891;SDS011;68368;51.728;5.248;2024-01-10T00:20:59;5.40;;;2.70;;
78891;SDS011;68368;51.728;5.248;2024-01-10T00:23:01;5.70;;;2.90;;
78891;SDS011;68368;51.728;5.248;2024-01-10T00:25:05;5.60;;;2.90;;
78891;SDS011;68368;51.728;5.248;2024-01-10T00:27:11;7.90;;;3.50;;
78891;SDS011;68368;51.728;5.248;2024-01-10T00:29:14;4.90;;;2.60;;
78891;SDS011;68368;51.728;5.248;2024-01-10T00:31:17;4.90;;;2.60;;
78891;SDS011;68368;51.728;5.248;2024-01-10T00:33:21;4.10;;;2.00;;
78891;SDS011;68368;51.728;5.248;2024-01-10T00:35:25;4.80;;;2.40;;
78891;SDS011;68368;51.728;5.248;2024-01-10T00:37:28;6.80;;;2.90;;
78891;SDS011;68368;51.728;5.248;2024-01-10T00:39:33;5.90;;;2.90;;
78891;SDS011;68368;51.728;5.248;2024-01-10T00:41:38;7.10;;;2.80;;
78891;SDS011;68368;51.728;5.248;2024-01-10T00:43:41;6.10;;;2.60;;
78891;SDS011;68368;51.728;5.248;2024-01-10T00:45:44;7.00;;;3.00;;
78891;SDS011;68368;51.728;5.248;2024-01-10T00:47:48;5.60;;;2.50;;
78891;SDS011;68368;51.728;5.248;2024-01-10T00:49:52;5.10;;;2.60;;
78891;SDS011;68368;51.728;5.248;2024-01-10T00:51:55;4.30;;;2.50;;
78891;SDS011;68368;51.728;5.248;2024-01-10T00:53:57;5.10;;;2.60;;
78891;SDS011;68368;51.728;5.248;2024-01-10T00:56:00;6.30;;;2.90;;
78891;SDS011;68368;51.728;5.248;2024-01-10T00:58:06;6.20;;;3.10;;
78891;SDS011;68368;51.728;5.248;2024-01-10T01:00:12;5.40;;;2.00;;
78891;SDS011;68368;51.728;5.248;2024-01-10T01:02:15;5.40;;;2.90;;
78891;SDS011;68368;51.728;5.248;2024-01-10T01:04:19;6.10;;;2.50;;
78891;SDS011;68368;51.728;5.248;2024-01-10T01:06:22;5.30;;;3.00;;
78891;SDS011;68368;51.728;5.248;2024-01-10T01:08:25;5.50;;;2.80;;
78891;SDS011;68368;51.728;5.248;2024-01-10T01:10:28;4.70;;;2.80;;
78891;SDS011;68368;51.728;5.248;2024-01-10T01:12:31;5.30;;;2.50;;
78891;SDS011;68368;51.728;5.248;2024-01-10T01:14:34;6.40;;;3.00;;
78891;SDS011;68368;51.728;5.248;2024-01-10T01:16:37;5.90;;;3.40;;
78891;SDS011;68368;51.728;5.248;2024-01-10T01:18:40;6.20;;;3.50;;
78891;SDS011;68368;51.728;5.248;2024-01-10T01:20:43;7.40;;;3.10;;
78891;SDS011;68368;51.728;5.248;2024-01-10T01:22:46;4.40;;;2.60;;
78891;SDS011;68368;51.728;5.248;2024-01-10T01:24:49;6.80;;;2.90;;
78891;SDS011;68368;51.728;5.248;2024-01-10T01:26:53;5.40;;;3.30;;
78891;SDS011;68368;51.728;5.248;2024-01-10T01:28:55;6.30;;;2.60;;
78891;SDS011;68368;51.728;5.248;2024-01-10T01:31:01;4.80;;;2.60;;
78891;SDS011;68368;51.728;5.248;2024-01-10T01:33:05;5.10;;;3.00;;
78891;SDS011;68368;51.728;5.248;2024-01-10T01:35:08;6.40;;;3.50;;
78891;SDS011;68368;51.728;5.248;2024-01-10T01:37:15;5.00;;;2.90;;
78891;SDS011;68368;51.728;5.248;2024-01-10T01:39:18;5.60;;;2.80;;
78891;SDS011;68368;51.728;5.248;2024-01-10T01:41:22;6.40;;;2.70;;
78891;SDS011;68368;51.728;5.248;2024-01-10T01:43:29;5.80;;;2.70;;
78891;SDS011;68368;51.728;5.248;2024-01-10T01:45:33;6.80;;;2.60;;
78891;SDS011;68368;51.728;5.248;2024-01-10T01:47:38;5.60;;;3.20;;
78891;SDS011;68368;51.728;5.248;2024-01-10T01:49:42;4.50;;;2.30;;
78891;SDS011;68368;51.728;5.248;2024-01-10T01:51:45;6.10;;;2.90;;
78891;SDS011;68368;51.728;5.248;2024-01-10T01:53:51;5.40;;;2.80;;
78891;SDS011;68368;51.728;5.248;2024-01-10T01:55:55;4.80;;;3.00;;
78891;SDS011;68368;51.728;5.248;2024-01-10T01:57:59;4.90;;;2.80;;
78891;SDS011;68368;51.728;5.248;2024-01-10T02:00:03;6.50;;;2.60;;
78891;SDS011;68368;51.728;5.248;2024-01-10T02:02:08;6.10;;;3.10;;
78891;SDS011;68368;51.728;5.248;2024-01-10T02:04:13;5.40;;;3.00;;
78891;SDS011;68368;51.728;5.248;2024-01-10T02:06:17;5.90;;;3.20;;
78891;SDS011;68368;51.728;5.248;2024-01-10T02:08:20;7.40;;;3.20;;
78891;SDS011;68368;51.728;5.248;2024-01-10T02:10:23;5.50;;;2.50;;
78891;SDS011;68368;51.728;5.248;2024-01-10T02:12:26;5.20;;;2.80;;
78891;SDS011;68368;51.728;5.248;2024-01-10T02:14:28;7.10;;;3.20;;
78891;SDS011;68368;51.728;5.248;2024-01-10T02:16:31;7.20;;;3.50;;
78891;SDS011;68368;51.728;5.248;2024-01-10T02:18:35;7.60;;;3.00;;
78891;SDS011;68368;51.728;5.248;2024-01-10T02:20:40;5.90;;;2.90;;
78891;SDS011;68368;51.728;5.248;2024-01-10T02:22:52;5.80;;;2.80;;
78891;SDS011;68368;51.728;5.248;2024-01-10T02:24:55;5.80;;;3.00;;
78891;SDS011;68368;51.728;5.248;2024-01-10T02:26:59;5.70;;;3.10;;
78891;SDS011;68368;51.728;5.248;2024-01-10T02:29:03;5.70;;;3.10;;
78891;SDS011;68368;51.728;5.248;2024-01-10T02:31:10;4.70;;;2.80;;
78891;SDS011;68368;51.728;5.248;2024-01-10T02:33:12;5.30;;;2.60;;
78891;SDS011;68368;51.728;5.248;2024-01-10T02:35:15;6.00;;;2.90;;
78891;SDS011;68368;51.728;5.248;2024-01-10T02:37:19;5.00;;;2.50;;
78891;SDS011;68368;51.728;5.248;2024-01-10T02:39:22;6.50;;;2.70;;
78891;SDS011;68368;51.728;5.248;2024-01-10T02:41:26;6.80;;;3.40;;
78891;SDS011;68368;51.728;5.248;2024-01-10T02:43:29;5.00;;;2.80;;
78891;SDS011;68368;51.728;5.248;2024-01-10T02:45:34;5.50;;;2.70;;
78891;SDS011;68368;51.728;5.248;2024-01-10T02:47:37;5.20;;;2.80;;
78891;SDS011;68368;51.728;5.248;2024-01-10T02:49:40;6.30;;;3.10;;
78891;SDS011;68368;51.728;5.248;2024-01-10T02:51:43;6.00;;;3.00;;
78891;SDS011;68368;51.728;5.248;2024-01-10T02:53:47;7.30;;;3.40;;
78891;SDS011;68368;51.728;5.248;2024-01-10T02:55:50;5.40;;;2.90;;
78891;SDS011;68368;51.728;5.248;2024-01-10T02:57:54;5.40;;;2.60;;
78891;SDS011;68368;51.728;5.248;2024-01-10T02:59:57;6.10;;;3.00;;
78891;SDS011;68368;51.728;5.248;2024-01-10T03:02:00;5.60;;;2.70;;
78891;SDS011;68368;51.728;5.248;2024-01-10T03:04:04;6.00;;;3.00;;
78891;SDS011;68368;51.728;5.248;2024-01-10T03:06:30;7.80;;;3.60;;
78891;SDS011;68368;51.728;5.248;2024-01-10T03:08:33;5.50;;;2.90;;
78891;SDS011;68368;51.728;5.248;2024-01-10T03:10:36;6.80;;;3.00;;
78891;SDS011;68368;51.728;5.248;2024-01-10T03:12:41;7.90;;;3.20;;
78891;SDS011;68368;51.728;5.248;2024-01-10T03:14:46;5.90;;;3.30;;
78891;SDS011;68368;51.728;5.248;2024-01-10T03:16:49;5.00;;;2.80;;
78891;SDS011;68368;51.728;5.248;2024-01-10T03:18:52;6.50;;;3.60;;
78891;SDS011;68368;51.728;5.248;2024-01-10T03:20:55;7.00;;;2.90;;
78891;SDS011;68368;51.728;5.248;2024-01-10T03:22:58;6.00;;;3.50;;
78891;SDS011;68368;51.728;5.248;2024-01-10T03:25:05;6.90;;;3.10;;
78891;SDS011;68368;51.728;5.248;2024-01-10T03:27:10;6.20;;;3.20;;
78891;SDS011;68368;51.728;5.248;2024-01-10T03:29:14;6.80;;;3.20;;
78891;SDS011;68368;51.728;5.248;2024-01-10T03:31:19;5.60;;;2.90;;
78891;SDS011;68368;51.728;5.248;2024-01-10T03:33:22;6.80;;;3.20;;
78891;SDS011;68368;51.728;5.248;2024-01-10T03:35:25;5.30;;;3.00;;
78891;SDS011;68368;51.728;5.248;2024-01-10T03:37:28;7.60;;;3.80;;
78891;SDS011;68368;51.728;5.248;2024-01-10T03:39:31;6.90;;;3.30;;
78891;SDS011;68368;51.728;5.248;2024-01-10T03:41:37;6.70;;;3.40;;
78891;SDS011;68368;51.728;5.248;2024-01-10T03:43:40;5.90;;;3.30;;
78891;SDS011;68368;51.728;5.248;2024-01-10T03:45:46;6.50;;;3.40;;
78891;SDS011;68368;51.728;5.248;2024-01-10T03:47:49;7.60;;;3.30;;
78891;SDS011;68368;51.728;5.248;2024-01-10T03:49:52;7.60;;;3.70;;
78891;SDS011;68368;51.728;5.248;2024-01-10T03:51:56;5.80;;;3.00;;
78891;SDS011;68368;51.728;5.248;2024-01-10T03:53:58;7.60;;;3.20;;
78891;SDS011;68368;51.728;5.248;2024-01-10T03:56:08;6.80;;;3.40;;
78891;SDS011;68368;51.728;5.248;2024-01-10T03:58:11;7.30;;;3.70;;
78891;SDS011;68368;51.728;5.248;2024-01-10T04:00:17;9.30;;;5.00;;
78891;SDS011;68368;51.728;5.248;2024-01-10T04:02:24;6.00;;;2.90;;
78891;SDS011;68368;51.728;5.248;2024-01-10T04:04:27;7.00;;;3.40;;
78891;SDS011;68368;51.728;5.248;2024-01-10T04:06:30;6.40;;;3.20;;
78891;SDS011;68368;51.728;5.248;2024-01-10T04:08:36;5.50;;;2.80;;
78891;SDS011;68368;51.728;5.248;2024-01-10T04:10:39;5.10;;;2.90;;
78891;SDS011;68368;51.728;5.248;2024-01-10T04:12:42;6.00;;;3.30;;
78891;SDS011;68368;51.728;5.248;2024-01-10T04:14:46;4.10;;;2.30;;
78891;SDS011;68368;51.728;5.248;2024-01-10T04:16:49;7.80;;;3.40;;
78891;SDS011;68368;51.728;5.248;2024-01-10T04:18:56;6.80;;;3.50;;
78891;SDS011;68368;51.728;5.248;2024-01-10T04:21:02;6.10;;;3.10;;
78891;SDS011;68368;51.728;5.248;2024-01-10T04:23:08;6.30;;;3.10;;
78891;SDS011;68368;51.728;5.248;2024-01-10T04:25:11;5.80;;;2.90;;
78891;SDS011;68368;51.728;5.248;2024-01-10T04:27:14;7.20;;;3.50;;
78891;SDS011;68368;51.728;5.248;2024-01-10T04:29:20;6.90;;;3.60;;
78891;SDS011;68368;51.728;5.248;2024-01-10T04:31:25;6.40;;;3.10;;
78891;SDS011;68368;51.728;5.248;2024-01-10T04:33:30;5.80;;;2.90;;
78891;SDS011;68368;51.728;5.248;2024-01-10T04:35:33;6.80;;;3.60;;
78891;SDS011;68368;51.728;5.248;2024-01-10T04:37:37;5.10;;;2.90;;
78891;SDS011;68368;51.728;5.248;2024-01-10T04:39:40;6.40;;;3.00;;
78891;SDS011;68368;51.728;5.248;2024-01-10T04:41:46;4.20;;;2.40;;
78891;SDS011;68368;51.728;5.248;2024-01-10T04:43:52;7.50;;;3.10;;
78891;SDS011;68368;51.728;5.248;2024-01-10T04:45:55;6.20;;;3.10;;
78891;SDS011;68368;51.728;5.248;2024-01-10T04:47:58;6.90;;;2.80;;
78891;SDS011;68368;51.728;5.248;2024-01-10T04:50:01;6.30;;;2.90;;
78891;SDS011;68368;51.728;5.248;2024-01-10T04:52:06;5.70;;;2.80;;
78891;SDS011;68368;51.728;5.248;2024-01-10T04:54:11;5.60;;;2.90;;
78891;SDS011;68368;51.728;5.248;2024-01-10T04:56:14;7.60;;;3.30;;
78891;SDS011;68368;51.728;5.248;2024-01-10T04:58:17;8.10;;;3.00;;
78891;SDS011;68368;51.728;5.248;2024-01-10T05:00:21;5.60;;;3.40;;
78891;SDS011;68368;51.728;5.248;2024-01-10T05:02:24;5.90;;;3.00;;
78891;SDS011;68368;51.728;5.248;2024-01-10T05:04:27;6.80;;;2.70;;
78891;SDS011;68368;51.728;5.248;2024-01-10T05:06:30;6.30;;;3.30;;
78891;SDS011;68368;51.728;5.248;2024-01-10T05:08:35;7.30;;;3.40;;
78891;SDS011;68368;51.728;5.248;2024-01-10T05:10:38;6.10;;;3.00;;
78891;SDS011;68368;51.728;5.248;2024-01-10T05:12:42;6.00;;;3.20;;
78891;SDS011;68368;51.728;5.248;2024-01-10T05:14:45;7.50;;;2.90;;
78891;SDS011;68368;51.728;5.248;2024-01-10T05:16:49;7.30;;;3.20;;
78891;SDS011;68368;51.728;5.248;2024-01-10T05:18:52;6.20;;;3.20;;
78891;SDS011;68368;51.728;5.248;2024-01-10T05:20:55;6.80;;;3.30;;
78891;SDS011;68368;51.728;5.248;2024-01-10T05:23:03;7.00;;;2.90;;
78891;SDS011;68368;51.728;5.248;2024-01-10T05:25:08;6.70;;;3.20;;
78891;SDS011;68368;51.728;5.248;2024-01-10T05:27:11;6.70;;;3.10;;
78891;SDS011;68368;51.728;5.248;2024-01-10T05:29:16;7.10;;;3.00;;
78891;SDS011;68368;51.728;5.248;2024-01-10T05:31:22;7.10;;;3.50;;
78891;SDS011;68368;51.728;5.248;2024-01-10T05:33:25;7.40;;;3.30;;
78891;SDS011;68368;51.728;5.248;2024-01-10T05:35:27;7.30;;;3.10;;
78891;SDS011;68368;51.728;5.248;2024-01-10T05:37:31;7.00;;;3.50;;
78891;SDS011;68368;51.728;5.248;2024-01-10T05:39:34;7.10;;;3.30;;
78891;SDS011;68368;51.728;5.248;2024-01-10T05:41:37;6.80;;;2.70;;
78891;SDS011;68368;51.728;5.248;2024-01-10T05:43:40;6.60;;;3.50;;
78891;SDS011;68368;51.728;5.248;2024-01-10T05:45:43;5.80;;;2.90;;
78891;SDS011;68368;51.728;5.248;2024-01-10T05:47:46;6.40;;;3.10;;
78891;SDS011;68368;51.728;5.248;2024-01-10T05:49:50;5.70;;;2.90;;
78891;SDS011;68368;51.728;5.248;2024-01-10T05:51:54;6.70;;;3.40;;
78891;SDS011;68368;51.728;5.248;2024-01-10T05:53:57;6.80;;;3.60;;
78891;SDS011;68368;51.728;5.248;2024-01-10T05:56:01;7.80;;;3.30;;
78891;SDS011;68368;51.728;5.248;2024-01-10T05:58:07;7.60;;;3.70;;
78891;SDS011;68368;51.728;5.248;2024-01-10T06:00:13;6.20;;;3.20;;
78891;SDS011;68368;51.728;5.248;2024-01-10T06:04:21;6.50;;;3.40;;
78891;SDS011;68368;51.728;5.248;2024-01-10T06:06:27;5.70;;;3.20;;
78891;SDS011;68368;51.728;5.248;2024-01-10T06:08:30;6.70;;;3.10;;
78891;SDS011;68368;51.728;5.248;2024-01-10T06:10:35;8.90;;;4.20;;
78891;SDS011;68368;51.728;5.248;2024-01-10T06:12:38;6.40;;;3.30;;
78891;SDS011;68368;51.728;5.248;2024-01-10T06:14:41;8.40;;;3.30;;
78891;SDS011;68368;51.728;5.248;2024-01-10T06:16:44;6.30;;;3.00;;
78891;SDS011;68368;51.728;5.248;2024-01-10T06:18:47;7.30;;;3.70;;
78891;SDS011;68368;51.728;5.248;2024-01-10T06:20:51;9.30;;;3.40;;
78891;SDS011;68368;51.728;5.248;2024-01-10T06:22:54;7.80;;;3.40;;
78891;SDS011;68368;51.728;5.248;2024-01-10T06:24:56;7.00;;;3.40;;
78891;SDS011;68368;51.728;5.248;2024-01-10T06:26:59;7.10;;;3.40;;
78891;SDS011;68368;51.728;5.248;2024-01-10T06:29:02;7.70;;;3.10;;
78891;SDS011;68368;51.728;5.248;2024-01-10T06:31:06;5.60;;;3.50;;
78891;SDS011;68368;51.728;5.248;2024-01-10T06:33:09;7.70;;;3.90;;
78891;SDS011;68368;51.728;5.248;2024-01-10T06:35:13;7.40;;;3.40;;
78891;SDS011;68368;51.728;5.248;2024-01-10T06:37:16;7.00;;;3.10;;
78891;SDS011;68368;51.728;5.248;2024-01-10T06:39:18;6.90;;;2.90;;
78891;SDS011;68368;51.728;5.248;2024-01-10T06:41:22;6.30;;;3.30;;
78891;SDS011;68368;51.728;5.248;2024-01-10T06:43:25;7.50;;;4.00;;
78891;SDS011;68368;51.728;5.248;2024-01-10T06:45:32;7.30;;;3.30;;
78891;SDS011;68368;51.728;5.248;2024-01-10T06:47:34;9.30;;;4.40;;
78891;SDS011;68368;51.728;5.248;2024-01-10T06:49:37;8.00;;;3.90;;
78891;SDS011;68368;51.728;5.248;2024-01-10T06:51:40;6.70;;;4.20;;
78891;SDS011;68368;51.728;5.248;2024-01-10T06:53:43;6.00;;;3.80;;
78891;SDS011;68368;51.728;5.248;2024-01-10T06:55:46;6.40;;;3.40;;
78891;SDS011;68368;51.728;5.248;2024-01-10T06:57:49;7.10;;;3.30;;
78891;SDS011;68368;51.728;5.248;2024-01-10T06:59:52;7.40;;;3.20;;
78891;SDS011;68368;51.728;5.248;2024-01-10T07:01:56;9.90;;;4.20;;
78891;SDS011;68368;51.728;5.248;2024-01-10T07:03:59;7.40;;;4.10;;
78891;SDS011;68368;51.728;5.248;2024-01-10T07:06:03;7.90;;;3.80;;
78891;SDS011;68368;51.728;5.248;2024-01-10T07:08:07;9.10;;;3.90;;
78891;SDS011;68368;51.728;5.248;2024-01-10T07:10:10;7.00;;;3.90;;
78891;SDS011;68368;51.728;5.248;2024-01-10T07:12:13;7.10;;;3.90;;
78891;SDS011;68368;51.728;5.248;2024-01-10T07:14:16;7.70;;;3.50;;
78891;SDS011;68368;51.728;5.248;2024-01-10T07:16:19;8.20;;;4.10;;
78891;SDS011;68368;51.728;5.248;2024-01-10T07:18:22;9.40;;;3.90;;
78891;SDS011;68368;51.728;5.248;2024-01-10T07:20:25;7.30;;;3.70;;
78891;SDS011;68368;51.728;5.248;2024-01-10T07:22:28;7.30;;;3.80;;
78891;SDS011;68368;51.728;5.248;2024-01-10T07:24:31;10.30;;;5.00;;
78891;SDS011;68368;51.728;5.248;2024-01-10T07:26:33;8.80;;;4.20;;
78891;SDS011;68368;51.728;5.248;2024-01-10T07:28:36;8.00;;;4.10;;
78891;SDS011;68368;51.728;5.248;2024-01-10T07:30:39;9.80;;;3.90;;
78891;SDS011;68368;51.728;5.248;2024-01-10T07:32:42;7.00;;;4.00;;
78891;SDS011;68368;51.728;5.248;2024-01-10T07:34:46;8.00;;;4.50;;
78891;SDS011;68368;51.728;5.248;2024-01-10T07:36:48;9.40;;;4.20;;
78891;SDS011;68368;51.728;5.248;2024-01-10T07:38:51;9.50;;;4.00;;
78891;SDS011;68368;51.728;5.248;2024-01-10T07:40:54;8.80;;;3.60;;
78891;SDS011;68368;51.728;5.248;2024-01-10T07:42:57;9.40;;;4.20;;
78891;SDS011;68368;51.728;5.248;2024-01-10T07:45:00;8.40;;;4.60;;
78891;SDS011;68368;51.728;5.248;2024-01-10T07:47:04;8.90;;;4.00;;
78891;SDS011;68368;51.728;5.248;2024-01-10T07:49:07;7.70;;;4.10;;
78891;SDS011;68368;51.728;5.248;2024-01-10T07:51:09;10.50;;;4.90;;
78891;SDS011;68368;51.728;5.248;2024-01-10T07:53:12;8.70;;;4.70;;
78891;SDS011;68368;51.728;5.248;2024-01-10T07:55:15;8.30;;;4.50;;
78891;SDS011;68368;51.728;5.248;2024-01-10T07:57:18;8.20;;;4.50;;
78891;SDS011;68368;51.728;5.248;2024-01-10T07:59:21;8.50;;;4.60;;
78891;SDS011;68368;51.728;5.248;2024-01-10T08:01:24;5.30;;;3.50;;
78891;SDS011;68368;51.728;5.248;2024-01-10T08:03:26;8.30;;;4.40;;
78891;SDS011;68368;51.728;5.248;2024-01-10T08:05:43;7.30;;;4.20;;
78891;SDS011;68368;51.728;5.248;2024-01-10T08:07:46;8.80;;;4.70;;
78891;SDS011;68368;51.728;5.248;2024-01-10T08:09:49;8.20;;;4.40;;
78891;SDS011;68368;51.728;5.248;2024-01-10T08:11:52;6.40;;;4.00;;
78891;SDS011;68368;51.728;5.248;2024-01-10T08:13:55;14.10;;;4.60;;
78891;SDS011;68368;51.728;5.248;2024-01-10T08:15:58;8.50;;;5.00;;
78891;SDS011;68368;51.728;5.248;2024-01-10T08:18:01;9.30;;;5.00;;
78891;SDS011;68368;51.728;5.248;2024-01-10T08:20:05;10.60;;;5.20;;
78891;SDS011;68368;51.728;5.248;2024-01-10T08:22:09;9.80;;;4.70;;
78891;SDS011;68368;51.728;5.248;2024-01-10T08:24:15;9.60;;;4.60;;
78891;SDS011;68368;51.728;5.248;2024-01-10T08:26:17;10.40;;;5.30;;
78891;SDS011;68368;51.728;5.248;2024-01-10T08:28:20;7.90;;;4.60;;
78891;SDS011;68368;51.728;5.248;2024-01-10T08:30:23;8.30;;;5.20;;
78891;SDS011;68368;51.728;5.248;2024-01-10T08:32:26;11.00;;;5.40;;
78891;SDS011;68368;51.728;5.248;2024-01-10T08:34:29;10.10;;;5.00;;
78891;SDS011;68368;51.728;5.248;2024-01-10T08:36:32;9.50;;;4.20;;
78891;SDS011;68368;51.728;5.248;2024-01-10T08:38:35;10.40;;;4.80;;
78891;SDS011;68368;51.728;5.248;2024-01-10T08:40:38;9.40;;;5.20;;
78891;SDS011;68368;51.728;5.248;2024-01-10T08:42:43;9.60;;;5.20;;
78891;SDS011;68368;51.728;5.248;2024-01-10T08:44:46;9.60;;;5.20;;
78891;SDS011;68368;51.728;5.248;2024-01-10T08:46:48;11.20;;;5.00;;
78891;SDS011;68368;51.728;5.248;2024-01-10T08:48:51;11.40;;;5.40;;
78891;SDS011;68368;51.728;5.248;2024-01-10T08:50:54;10.40;;;5.40;;
78891;SDS011;68368;51.728;5.248;2024-01-10T08:52:57;11.30;;;5.10;;
78891;SDS011;68368;51.728;5.248;2024-01-10T08:55:00;8.90;;;5.00;;
78891;SDS011;68368;51.728;5.248;2024-01-10T08:57:04;12.50;;;5.90;;
78891;SDS011;68368;51.728;5.248;2024-01-10T08:59:07;9.20;;;4.90;;
78891;SDS011;68368;51.728;5.248;2024-01-10T09:01:09;8.80;;;4.80;;
78891;SDS011;68368;51.728;5.248;2024-01-10T09:03:12;10.10;;;5.30;;
78891;SDS011;68368;51.728;5.248;2024-01-10T09:05:16;9.90;;;5.50;;
78891;SDS011;68368;51.728;5.248;2024-01-10T09:07:18;11.90;;;5.60;;
78891;SDS011;68368;51.728;5.248;2024-01-10T09:09:21;10.10;;;5.70;;
78891;SDS011;68368;51.728;5.248;2024-01-10T09:11:24;11.80;;;5.90;;
78891;SDS011;68368;51.728;5.248;2024-01-10T09:13:30;12.80;;;5.90;;
78891;SDS011;68368;51.728;5.248;2024-01-10T09:15:33;11.30;;;5.60;;
78891;SDS011;68368;51.728;5.248;2024-01-10T09:17:36;11.00;;;6.20;;
78891;SDS011;68368;51.728;5.248;2024-01-10T09:19:38;11.70;;;6.10;;
78891;SDS011;68368;51.728;5.248;2024-01-10T09:21:41;13.10;;;5.80;;
78891;SDS011;68368;51.728;5.248;2024-01-10T09:23:44;10.50;;;5.60;;
78891;SDS011;68368;51.728;5.248;2024-01-10T09:25:47;11.40;;;5.70;;
78891;SDS011;68368;51.728;5.248;2024-01-10T09:27:50;10.70;;;5.90;;
78891;SDS011;68368;51.728;5.248;2024-01-10T09:29:52;12.40;;;6.50;;
78891;SDS011;68368;51.728;5.248;2024-01-10T09:31:55;10.40;;;5.80;;
78891;SDS011;68368;51.728;5.248;2024-01-10T09:34:01;10.80;;;5.20;;
78891;SDS011;68368;51.728;5.248;2024-01-10T09:36:05;12.00;;;5.80;;
78891;SDS011;68368;51.728;5.248;2024-01-10T09:38:09;10.40;;;5.80;;
78891;SDS011;68368;51.728;5.248;2024-01-10T09:40:14;10.70;;;5.70;;
78891;SDS011;68368;51.728;5.248;2024-01-10T09:42:17;14.00;;;6.70;;
78891;SDS011;68368;51.728;5.248;2024-01-10T09:44:20;10.20;;;5.70;;
78891;SDS011;68368;51.728;5.248;2024-01-10T09:46:23;12.20;;;6.50;;
78891;SDS011;68368;51.728;5.248;2024-01-10T09:48:29;10.70;;;5.80;;
78891;SDS011;68368;51.728;5.248;2024-01-10T09:50:33;9.80;;;5.60;;
78891;SDS011;68368;51.728;5.248;2024-01-10T09:52:41;12.40;;;6.30;;
78891;SDS011;68368;51.728;5.248;2024-01-10T09:54:48;10.90;;;5.60;;
78891;SDS011;68368;51.728;5.248;2024-01-10T09:56:56;13.30;;;6.50;;
78891;SDS011;68368;51.728;5.248;2024-01-10T09:59:01;11.70;;;5.70;;
78891;SDS011;68368;51.728;5.248;2024-01-10T10:01:06;11.70;;;6.10;;
78891;SDS011;68368;51.728;5.248;2024-01-10T10:03:09;11.50;;;5.80;;
78891;SDS011;68368;51.728;5.248;2024-01-10T10:05:14;11.20;;;6.20;;
78891;SDS011;68368;51.728;5.248;2024-01-10T10:07:18;12.00;;;6.00;;
78891;SDS011;68368;51.728;5.248;2024-01-10T10:09:21;11.30;;;6.30;;
78891;SDS011;68368;51.728;5.248;2024-01-10T10:11:24;13.60;;;6.30;;
78891;SDS011;68368;51.728;5.248;2024-01-10T10:13:28;13.70;;;6.60;;
78891;SDS011;68368;51.728;5.248;2024-01-10T10:15:32;12.70;;;6.10;;
78891;SDS011;68368;51.728;5.248;2024-01-10T10:17:35;13.50;;;6.00;;
78891;SDS011;68368;51.728;5.248;2024-01-10T10:19:37;13.40;;;6.70;;
78891;SDS011;68368;51.728;5.248;2024-01-10T10:21:40;13.70;;;6.80;;
78891;SDS011;68368;51.728;5.248;2024-01-10T10:23:57;12.50;;;6.90;;
78891;SDS011;68368;51.728;5.248;2024-01-10T10:26:10;12.50;;;6.60;;
78891;SDS011;68368;51.728;5.248;2024-01-10T10:28:14;15.00;;;6.90;;
78891;SDS011;68368;51.728;5.248;2024-01-10T10:30:18;14.60;;;6.60;;
78891;SDS011;68368;51.728;5.248;2024-01-10T10:32:21;13.50;;;6.40;;
78891;SDS011;68368;51.728;5.248;2024-01-10T10:34:24;14.80;;;6.50;;
78891;SDS011;68368;51.728;5.248;2024-01-10T10:36:33;12.00;;;6.20;;
78891;SDS011;68368;51.728;5.248;2024-01-10T10:38:38;13.90;;;6.80;;
78891;SDS011;68368;51.728;5.248;2024-01-10T10:40:42;12.80;;;7.10;;
78891;SDS011;68368;51.728;5.248;2024-01-10T10:42:46;13.50;;;6.80;;
78891;SDS011;68368;51.728;5.248;2024-01-10T10:44:49;12.90;;;6.70;;
78891;SDS011;68368;51.728;5.248;2024-01-10T10:46:55;14.00;;;7.60;;
78891;SDS011;68368;51.728;5.248;2024-01-10T10:49:07;14.20;;;7.70;;
78891;SDS011;68368;51.728;5.248;2024-01-10T10:51:17;11.80;;;7.20;;
78891;SDS011;68368;51.728;5.248;2024-01-10T10:53:28;13.30;;;7.30;;
78891;SDS011;68368;51.728;5.248;2024-01-10T10:55:32;16.30;;;7.50;;
78891;SDS011;68368;51.728;5.248;2024-01-10T10:57:38;15.40;;;7.70;;
78891;SDS011;68368;51.728;5.248;2024-01-10T10:59:43;14.80;;;6.90;;
78891;SDS011;68368;51.728;5.248;2024-01-10T11:01:47;12.50;;;6.90;;
78891;SDS011;68368;51.728;5.248;2024-01-10T11:03:52;12.50;;;6.40;;
78891;SDS011;68368;51.728;5.248;2024-01-10T11:05:56;10.70;;;5.70;;
78891;SDS011;68368;51.728;5.248;2024-01-10T11:08:03;12.70;;;6.50;;
78891;SDS011;68368;51.728;5.248;2024-01-10T11:10:12;12.70;;;6.30;;
78891;SDS011;68368;51.728;5.248;2024-01-10T11:12:27;9.00;;;4.90;;
78891;SDS011;68368;51.728;5.248;2024-01-10T11:14:52;15.90;;;7.50;;
78891;SDS011;68368;51.728;5.248;2024-01-10T11:20:25;13.70;;;6.50;;
78891;SDS011;68368;51.728;5.248;2024-01-10T11:23:03;14.40;;;7.50;;
78891;SDS011;68368;51.728;5.248;2024-01-10T11:25:19;12.80;;;6.50;;
78891;SDS011;68368;51.728;5.248;2024-01-10T11:27:23;14.90;;;6.50;;
78891;SDS011;68368;51.728;5.248;2024-01-10T11:29:29;10.30;;;6.20;;
78891;SDS011;68368;51.728;5.248;2024-01-10T11:31:33;12.50;;;7.10;;
78891;SDS011;68368;51.728;5.248;2024-01-10T11:33:36;12.40;;;7.00;;
78891;SDS011;68368;51.728;5.248;2024-01-10T11:35:41;13.30;;;7.30;;
78891;SDS011;68368;51.728;5.248;2024-01-10T11:38:04;14.30;;;6.80;;
78891;SDS011;68368;51.728;5.248;2024-01-10T11:40:09;12.70;;;6.60;;
78891;SDS011;68368;51.728;5.248;2024-01-10T11:42:18;12.40;;;6.50;;
78891;SDS011;68368;51.728;5.248;2024-01-10T11:44:27;11.60;;;6.30;;
78891;SDS011;68368;51.728;5.248;2024-01-10T11:46:31;11.60;;;6.60;;
78891;SDS011;68368;51.728;5.248;2024-01-10T11:48:36;12.80;;;7.10;;
78891;SDS011;68368;51.728;5.248;2024-01-10T11:50:39;14.90;;;7.40;;
78891;SDS011;68368;51.728;5.248;2024-01-10T11:52:43;12.90;;;6.90;;
78891;SDS011;68368;51.728;5.248;2024-01-10T11:54:46;12.90;;;6.40;;
78891;SDS011;68368;51.728;5.248;2024-01-10T11:56:49;15.30;;;7.20;;
78891;SDS011;68368;51.728;5.248;2024-01-10T11:58:55;15.60;;;7.10;;
78891;SDS011;68368;51.728;5.248;2024-01-10T12:01:04;11.20;;;5.90;;
78891;SDS011;68368;51.728;5.248;2024-01-10T12:03:06;10.80;;;6.80;;
78891;SDS011;68368;51.728;5.248;2024-01-10T12:05:09;14.10;;;7.50;;
78891;SDS011;68368;51.728;5.248;2024-01-10T12:07:14;12.90;;;7.20;;
78891;SDS011;68368;51.728;5.248;2024-01-10T12:09:18;12.80;;;6.80;;
78891;SDS011;68368;51.728;5.248;2024-01-10T12:11:21;14.50;;;7.50;;
78891;SDS011;68368;51.728;5.248;2024-01-10T12:13:24;13.30;;;7.00;;
78891;SDS011;68368;51.728;5.248;2024-01-10T12:15:28;14.90;;;7.10;;
78891;SDS011;68368;51.728;5.248;2024-01-10T12:17:31;10.40;;;7.20;;
78891;SDS011;68368;51.728;5.248;2024-01-10T12:19:34;14.60;;;8.10;;
78891;SDS011;68368;51.728;5.248;2024-01-10T12:21:37;14.20;;;7.00;;
78891;SDS011;68368;51.728;5.248;2024-01-10T12:23:40;13.30;;;7.30;;
78891;SDS011;68368;51.728;5.248;2024-01-10T12:25:43;13.60;;;7.40;;
78891;SDS011;68368;51.728;5.248;2024-01-10T12:27:46;14.50;;;7.90;;
78891;SDS011;68368;51.728;5.248;2024-01-10T12:29:49;14.10;;;6.70;;